Time;durP1;ratioP1;P1;durP2;ratioP2;P2;SDS_P1;SDS_P2;PMS_P1;PMS_P2;Temp;Humidity;BMP_temperature;BMP_pressure;BME280_temperature;BME280_humidity;BME280_pressure;Samples;Min_cycle;Max_cycle;Signal;HPM_P1;HPM_P2
2023/12/09 00:01:52;;;;;;;19.87;7.43;;;;;;;-12.96;62.46;101955.47;5055174;28;20041;-74
2023/12/09 00:04:18;;;;;;;25.63;7.57;;;;;;;-12.77;62.26;101959.44;5073112;28;20074;-73
2023/12/09 00:06:49;;;;;;;21.20;8.53;;;;;;;-12.82;63.01;101952.97;5074382;28;20028;-73
2023/12/09 00:09:15;;;;;;;13.10;5.60;;;;;;;-12.98;61.21;101941.84;5057203;28;20040;-72
2023/12/09 00:11:42;;;;;;;28.53;8.67;;;;;;;-13.09;61.53;101943.06;5091099;28;20093;-72
2023/12/09 00:14:07;;;;;;;17.30;6.83;;;;;;;-13.24;60.73;101948.06;5073776;28;20509;-73
2023/12/09 00:16:34;;;;;;;19.93;7.83;;;;;;;-13.41;61.53;101931.00;5054959;28;20088;-73
2023/12/09 00:19:00;;;;;;;24.73;8.23;;;;;;;-13.50;62.28;101902.31;5047371;28;20055;-73
2023/12/09 00:21:27;;;;;;;16.93;6.00;;;;;;;-13.03;62.30;101937.19;5057870;28;20087;-73
2023/12/09 00:23:53;;;;;;;19.63;6.70;;;;;;;-13.11;61.57;101925.31;5045093;28;20071;-72
2023/12/09 00:26:19;;;;;;;22.33;8.80;;;;;;;-13.24;62.77;101877.88;5057760;28;20040;-72
2023/12/09 00:28:45;;;;;;;9.80;4.50;;;;;;;-12.98;61.20;101931.81;5089469;28;20036;-73
2023/12/09 00:31:11;;;;;;;19.67;7.93;;;;;;;-13.13;62.22;101915.84;5040632;28;20499;-73
2023/12/09 00:33:38;;;;;;;24.20;8.60;;;;;;;-12.99;63.11;101897.44;5040885;28;20036;-72
2023/12/09 00:36:04;;;;;;;21.53;8.47;;;;;;;-12.97;61.92;101874.31;5057145;28;20041;-72
2023/12/09 00:38:30;;;;;;;25.80;8.53;;;;;;;-12.54;63.61;101940.28;5073014;28;20475;-69
2023/12/09 00:40:56;;;;;;;19.27;7.70;;;;;;;-12.43;63.25;101904.81;5074100;28;20044;-69
2023/12/09 00:43:22;;;;;;;25.83;9.70;;;;;;;-12.46;61.20;101924.53;5056561;28;20504;-69
2023/12/09 00:45:47;;;;;;;17.47;5.40;;;;;;;-12.65;61.56;101909.84;5064986;28;20047;-70
2023/12/09 00:48:13;;;;;;;19.97;7.43;;;;;;;-12.67;61.41;101902.81;5072985;28;20051;-69
2023/12/09 00:50:39;;;;;;;25.57;8.70;;;;;;;-12.62;61.71;101919.31;5074936;28;20043;-69
2023/12/09 00:53:05;;;;;;;20.67;6.97;;;;;;;-12.89;60.57;101926.28;5056952;28;20063;-68
2023/12/09 00:55:31;;;;;;;17.10;7.53;;;;;;;-13.14;61.08;101892.41;5055387;28;20036;-69
2023/12/09 00:57:57;;;;;;;13.23;5.43;;;;;;;-13.76;60.91;101804.03;5075024;28;20143;-69
2023/12/09 01:00:25;;;;;;;17.70;7.40;;;;;;;-13.05;61.87;101905.13;5056266;28;20402;-69
2023/12/09 01:02:51;;;;;;;17.03;7.43;;;;;;;-13.32;60.92;101886.97;5072685;28;20036;-67
2023/12/09 01:05:17;;;;;;;27.50;8.47;;;;;;;-13.01;62.33;101917.28;5071177;28;20487;-69
2023/12/09 01:07:44;;;;;;;20.93;8.10;;;;;;;-12.99;62.28;101915.88;5075260;28;20670;-69
2023/12/09 01:10:10;;;;;;;24.80;8.27;;;;;;;-12.89;62.40;101910.31;5076623;28;20041;-69
2023/12/09 01:12:35;;;;;;;24.83;8.13;;;;;;;-13.03;61.99;101908.72;5077878;28;20048;-69
2023/12/09 01:15:02;;;;;;;20.83;7.40;;;;;;;-12.80;62.46;101908.03;5059953;28;20171;-68
2023/12/09 01:17:30;;;;;;;11.00;5.67;;;;;;;-12.81;62.33;101877.03;5076270;28;20469;-69
2023/12/09 01:19:56;;;;;;;22.90;8.13;;;;;;;-12.77;61.37;101900.84;5075372;28;20123;-69
2023/12/09 01:22:22;;;;;;;25.40;8.70;;;;;;;-12.68;62.38;101891.91;5058118;28;20075;-70
2023/12/09 01:24:48;;;;;;;19.93;7.83;;;;;;;-12.82;62.22;101876.88;5059297;28;20135;-70
2023/12/09 01:27:13;;;;;;;21.13;8.50;;;;;;;-12.45;62.42;101883.66;5076453;28;20060;-71
2023/12/09 01:29:40;;;;;;;20.87;8.20;;;;;;;-12.23;62.40;101884.53;5060817;28;20052;-71
2023/12/09 01:32:06;;;;;;;20.83;7.43;;;;;;;-12.20;61.20;101872.34;5059983;28;20070;-71
2023/12/09 01:34:32;;;;;;;24.60;8.30;;;;;;;-12.27;62.18;101854.78;5074090;28;20112;-70
2023/12/09 01:36:58;;;;;;;16.00;6.37;;;;;;;-12.43;59.86;101878.09;5044147;28;20031;-70
2023/12/09 01:39:24;;;;;;;21.47;7.93;;;;;;;-12.40;62.00;101877.59;5076039;28;20043;-70
2023/12/09 01:41:50;;;;;;;17.10;8.10;;;;;;;-12.17;61.86;101885.25;5060458;28;20040;-70
2023/12/09 01:44:16;;;;;;;11.90;5.57;;;;;;;-12.37;59.96;101869.50;5077882;28;20059;-71
2023/12/09 01:46:41;;;;;;;14.87;6.47;;;;;;;-12.67;59.47;101897.81;5076478;28;20505;-72
2023/12/09 01:49:08;;;;;;;14.07;5.40;;;;;;;-13.05;60.35;101895.09;5075565;28;20523;-71
2023/12/09 01:51:35;;;;;;;16.03;6.53;;;;;;;-13.29;60.55;101870.50;5059672;28;20043;-70
2023/12/09 01:54:02;;;;;;;24.73;8.40;;;;;;;-13.21;60.88;101892.38;5075854;28;20442;-70
2023/12/09 01:56:28;;;;;;;18.97;7.77;;;;;;;-13.30;60.43;101888.75;5075002;28;20105;-71
2023/12/09 01:58:54;;;;;;;17.03;6.00;;;;;;;-13.24;60.96;101904.53;5076998;28;20414;-71
2023/12/09 02:01:19;;;;;;;24.47;8.63;;;;;;;-13.49;60.79;101877.47;5076304;28;20036;-70
2023/12/09 02:03:45;;;;;;;23.67;8.53;;;;;;;-13.36;61.30;101892.34;5057923;28;20036;-71
2023/12/09 02:06:11;;;;;;;22.23;7.40;;;;;;;-13.06;62.51;101890.81;5074970;28;20036;-70
2023/12/09 02:08:39;;;;;;;19.43;8.10;;;;;;;-12.69;62.95;101879.22;5059643;28;20040;-70
2023/12/09 02:11:28;;;;;;;16.40;6.77;;;;;;;-12.72;60.49;101888.16;5077138;28;20116;-69
2023/12/09 02:14:07;;;;;;;24.53;7.83;;;;;;;-13.06;60.51;101884.16;5059049;28;20060;-70
2023/12/09 02:16:56;;;;;;;14.60;6.30;;;;;;;-13.30;61.50;101858.69;5059072;28;20040;-70
2023/12/09 02:19:23;;;;;;;13.77;5.67;;;;;;;-13.26;60.97;101875.88;5076739;28;20052;-69
2023/12/09 02:21:57;;;;;;;14.07;5.73;;;;;;;-13.37;60.67;101839.53;5077498;28;20040;-71
2023/12/09 02:24:24;;;;;;;13.37;5.77;;;;;;;-13.27;61.36;101844.00;5050741;28;20102;-71
2023/12/09 02:26:51;;;;;;;17.60;7.33;;;;;;;-13.14;62.14;101858.91;5076272;28;20543;-71
2023/12/09 02:29:19;;;;;;;19.87;6.70;;;;;;;-13.25;60.49;101867.66;5079415;28;20102;-71
2023/12/09 02:31:50;;;;;;;12.90;5.47;;;;;;;-13.59;60.85;101848.63;5040998;28;20136;-71
2023/12/09 02:34:18;;;;;;;;;;;;;;;-13.56;60.95;101857.41;5076336;28;20040;-71
2023/12/09 02:36:45;;;;;;;16.53;6.00;;;;;;;-13.99;61.55;101798.03;5075290;28;19916;-70
2023/12/09 02:39:14;;;;;;;10.57;5.00;;;;;;;-13.94;61.24;101813.63;5074454;28;20036;-70
2023/12/09 02:41:41;;;;;;;11.10;4.67;;;;;;;-13.80;61.50;101837.81;5064304;28;20417;-70
2023/12/09 02:44:08;;;;;;;22.67;7.50;;;;;;;-13.66;62.97;101825.34;5057337;28;20139;-69
2023/12/09 02:46:34;;;;;;;12.47;5.30;;;;;;;-13.35;61.81;101863.16;5058949;28;20048;-69
2023/12/09 02:49:00;;;;;;;18.70;6.40;;;;;;;-13.53;61.08;101836.81;5058235;28;20468;-71
2023/12/09 02:51:26;;;;;;;10.83;4.63;;;;;;;-13.71;61.00;101833.91;5059307;28;20028;-71
2023/12/09 02:53:52;;;;;;;10.23;4.97;;;;;;;-13.70;61.52;101842.34;5074223;28;20098;-72
2023/12/09 02:56:17;;;;;;;17.60;7.83;;;;;;;-13.73;61.92;101832.81;5076291;28;20044;-77
2023/12/09 02:58:43;;;;;;;18.27;6.87;;;;;;;-13.42;61.07;101864.06;5077158;28;20131;-69
2023/12/09 03:01:09;;;;;;;14.97;5.37;;;;;;;-13.87;61.44;101807.75;5075691;28;20079;-69
2023/12/09 03:03:35;;;;;;;17.80;6.00;;;;;;;-13.75;61.61;101829.22;5076046;28;20032;-70
2023/12/09 03:06:01;;;;;;;16.93;6.00;;;;;;;-13.69;61.46;101855.03;5074849;28;20036;-70
2023/12/09 03:08:27;;;;;;;22.27;5.80;;;;;;;-13.74;62.08;101828.53;5059573;28;20585;-69
2023/12/09 03:10:56;;;;;;;18.43;6.57;;;;;;;-13.34;62.70;101863.31;5058814;28;20127;-69
2023/12/09 03:13:22;;;;;;;22.53;7.73;;;;;;;-13.72;62.18;101803.69;5058404;28;20130;-70
2023/12/09 03:15:47;;;;;;;16.17;7.00;;;;;;;-13.82;60.74;101817.59;5058786;28;20533;-70
2023/12/09 03:18:13;;;;;;;17.50;6.97;;;;;;;-13.85;61.68;101836.38;5074278;28;20039;-70
2023/12/09 03:20:39;;;;;;;22.40;7.03;;;;;;;-13.93;61.59;101838.81;5073114;28;20292;-70
2023/12/09 03:23:05;;;;;;;18.13;6.63;;;;;;;-13.52;62.32;101863.66;5057677;28;20044;-70
2023/12/09 03:25:32;;;;;;;9.67;3.80;;;;;;;-13.56;61.49;101848.97;5056501;28;20070;-70
2023/12/09 03:27:58;;;;;;;17.97;6.43;;;;;;;-13.45;61.82;101847.75;5076011;28;20052;-71
2023/12/09 03:30:24;;;;;;;13.93;5.33;;;;;;;-13.39;61.21;101858.47;5055260;28;20441;-70
2023/12/09 03:32:50;;;;;;;21.93;7.47;;;;;;;-13.42;62.25;101836.50;5059741;28;20040;-70
2023/12/09 03:35:16;;;;;;;15.07;5.80;;;;;;;-13.33;61.38;101834.16;5087145;28;20036;-70
2023/12/09 03:37:42;;;;;;;14.10;5.73;;;;;;;-13.58;60.49;101837.91;5057103;28;20071;-71
2023/12/09 03:40:10;;;;;;;18.67;7.50;;;;;;;-13.62;61.44;101856.66;5074037;28;20086;-69
2023/12/09 03:42:35;;;;;;;15.57;6.30;;;;;;;-13.82;61.13;101836.75;5062915;28;20060;-69
2023/12/09 03:45:01;;;;;;;14.13;6.17;;;;;;;-13.74;61.68;101833.53;5074791;28;20153;-69
2023/12/09 03:47:29;;;;;;;11.67;5.10;;;;;;;-13.81;60.95;101848.56;5057414;28;20572;-69
2023/12/09 03:49:55;;;;;;;14.50;5.93;;;;;;;-14.08;61.47;101802.81;5074340;28;20135;-70
2023/12/09 03:52:21;;;;;;;18.73;7.13;;;;;;;-14.04;62.21;101818.22;5088716;28;20038;-70
2023/12/09 03:54:46;;;;;;;15.13;6.10;;;;;;;-13.81;61.85;101838.53;5073363;28;20078;-69
2023/12/09 03:57:14;;;;;;;8.43;4.30;;;;;;;-14.26;60.87;101770.56;5071999;28;20321;-71
2023/12/09 03:59:40;;;;;;;15.17;5.40;;;;;;;-13.90;61.52;101839.91;5055961;28;20037;-70
2023/12/09 04:02:06;;;;;;;18.50;6.43;;;;;;;-14.03;62.09;101820.00;5073969;28;20036;-71
2023/12/09 04:04:32;;;;;;;14.87;6.33;;;;;;;-13.97;62.81;101811.63;5073407;28;20037;-71
2023/12/09 04:06:58;;;;;;;16.50;7.10;;;;;;;-13.84;63.10;101793.09;5073311;28;20039;-71
2023/12/09 04:09:24;;;;;;;13.53;4.83;;;;;;;-13.99;61.58;101808.03;5057401;28;20147;-72
2023/12/09 04:11:50;;;;;;;16.70;5.87;;;;;;;-13.70;61.98;101840.72;5058365;28;20077;-71
2023/12/09 04:14:16;;;;;;;14.73;5.93;;;;;;;-13.79;61.69;101840.50;5072571;28;20036;-72
2023/12/09 04:16:42;;;;;;;13.07;5.80;;;;;;;-13.84;61.90;101814.00;5075875;28;20032;-70
2023/12/09 04:19:08;;;;;;;18.03;6.07;;;;;;;-14.09;61.60;101803.53;5058428;28;20096;-71
2023/12/09 04:21:34;;;;;;;13.50;5.70;;;;;;;-13.90;61.74;101843.31;5071447;28;20044;-71
2023/12/09 04:24:01;;;;;;;20.07;6.43;;;;;;;-13.97;62.22;101834.16;5055307;28;20032;-70
2023/12/09 04:26:27;;;;;;;12.87;4.60;;;;;;;-13.97;61.61;101850.78;5073408;28;20036;-70
2023/12/09 04:28:53;;;;;;;18.10;7.13;;;;;;;-13.81;63.15;101834.41;5055179;28;20036;-71
2023/12/09 04:31:20;;;;;;;17.27;7.57;;;;;;;-13.38;63.45;101848.66;5070143;28;20046;-71
2023/12/09 04:33:45;;;;;;;18.17;6.20;;;;;;;-13.03;63.15;101841.91;5056971;28;20041;-71
2023/12/09 04:36:11;;;;;;;13.23;5.77;;;;;;;-13.24;61.95;101797.69;5056473;28;20028;-70
2023/12/09 04:38:38;;;;;;;16.13;6.50;;;;;;;-13.30;61.72;101821.09;5072866;28;20533;-72
2023/12/09 04:41:04;;;;;;;9.47;4.70;;;;;;;-13.72;61.65;101782.03;5061719;28;20045;-71
2023/12/09 04:43:30;;;;;;;13.43;6.20;;;;;;;-13.59;61.25;101831.97;5077821;28;20122;-71
2023/12/09 04:45:55;;;;;;;17.83;7.03;;;;;;;-13.67;62.23;101837.66;5066564;28;20051;-72
2023/12/09 04:48:21;;;;;;;8.37;4.73;;;;;;;-13.43;61.50;101851.34;5079790;28;20083;-71
2023/12/09 04:50:48;;;;;;;16.57;5.43;;;;;;;-13.49;61.28;101842.41;5075842;28;20583;-71
2023/12/09 04:53:13;;;;;;;16.00;5.73;;;;;;;-13.61;61.21;101855.06;5077979;28;20040;-71
2023/12/09 04:55:40;;;;;;;14.27;5.87;;;;;;;-13.54;61.32;101860.06;5060667;28;20035;-71
2023/12/09 04:58:06;;;;;;;16.73;7.40;;;;;;;-13.45;62.24;101853.69;5076550;28;20036;-70
2023/12/09 05:00:32;;;;;;;17.30;5.40;;;;;;;-13.51;61.14;101857.94;5060599;28;20036;-72
2023/12/09 05:02:58;;;;;;;9.27;4.13;;;;;;;-13.41;62.04;101859.94;5075044;28;20559;-72
2023/12/09 05:05:24;;;;;;;11.00;5.20;;;;;;;-13.49;60.82;101854.00;5059267;28;20115;-70
2023/12/09 05:07:50;;;;;;;13.90;4.33;;;;;;;-13.28;62.09;101860.69;5078085;28;20068;-72
2023/12/09 05:10:16;;;;;;;16.97;5.67;;;;;;;-13.14;61.71;101869.84;5079681;28;20036;-71
2023/12/09 05:12:42;;;;;;;17.57;6.17;;;;;;;-13.09;62.03;101858.72;5076979;28;20035;-71
2023/12/09 05:15:08;;;;;;;16.83;6.13;;;;;;;-13.19;61.33;101845.84;5077708;28;20126;-71
2023/12/09 05:17:35;;;;;;;16.80;6.63;;;;;;;-12.88;62.37;101856.97;5077270;28;20131;-71
2023/12/09 05:20:01;;;;;;;14.93;6.53;;;;;;;-12.99;60.37;101844.78;5059936;28;20134;-70
2023/12/09 05:22:26;;;;;;;13.40;6.67;;;;;;;-13.36;60.26;101841.31;5043429;28;20603;-71
2023/12/09 05:24:52;;;;;;;16.47;7.07;;;;;;;-13.23;61.83;101861.22;5058398;28;20154;-70
2023/12/09 05:27:18;;;;;;;15.00;5.90;;;;;;;-13.30;60.94;101856.19;5058444;28;20040;-70
2023/12/09 05:29:44;;;;;;;14.87;5.77;;;;;;;-13.20;61.65;101864.09;5075912;28;20437;-70
2023/12/09 05:32:10;;;;;;;16.13;5.87;;;;;;;-13.33;61.22;101846.69;5060651;28;20101;-70
2023/12/09 05:34:36;;;;;;;10.43;5.57;;;;;;;-13.41;60.95;101852.44;5059201;28;20143;-71
2023/12/09 05:37:02;;;;;;;15.03;6.10;;;;;;;-13.68;60.60;101845.91;5079776;28;20146;-75
2023/12/09 05:39:28;;;;;;;13.97;5.07;;;;;;;-13.86;61.12;101822.06;5077534;28;20043;-75
2023/12/09 05:41:54;;;;;;;13.10;5.50;;;;;;;-13.71;61.04;101848.94;5079286;28;20040;-74
2023/12/09 05:44:23;;;;;;;14.87;5.13;;;;;;;-13.49;61.31;101876.56;5060892;28;20572;-69
2023/12/09 05:46:50;;;;;;;19.83;7.03;;;;;;;-13.45;62.46;101873.72;5077205;28;20032;-73
2023/12/09 05:49:16;;;;;;;12.37;4.97;;;;;;;-13.49;60.99;101881.56;5061145;28;20036;-71
2023/12/09 05:51:42;;;;;;;14.57;4.73;;;;;;;-13.42;61.07;101860.66;5077126;28;20047;-72
2023/12/09 05:54:08;;;;;;;18.40;6.77;;;;;;;-13.45;61.58;101833.63;5051673;28;20051;-74
2023/12/09 05:56:34;;;;;;;16.13;5.57;;;;;;;-13.66;61.50;101801.91;5058723;28;20032;-74
2023/12/09 05:59:00;;;;;;;15.03;7.43;;;;;;;-13.39;61.19;101863.50;5061674;28;20036;-74
2023/12/09 06:01:26;;;;;;;16.03;5.57;;;;;;;-13.74;61.14;101813.50;5059944;28;20389;-75
2023/12/09 06:03:52;;;;;;;18.83;6.57;;;;;;;-13.30;62.16;101876.22;5058686;28;20036;-70
2023/12/09 06:06:18;;;;;;;12.90;4.57;;;;;;;-13.49;61.92;101849.91;5042146;28;20082;-70
2023/12/09 06:08:45;;;;;;;22.00;7.60;;;;;;;-13.41;62.34;101818.25;5063881;28;20572;-72
2023/12/09 06:11:11;;;;;;;18.43;6.57;;;;;;;-12.82;62.77;101852.66;5048819;28;20064;-70
2023/12/09 06:13:37;;;;;;;15.63;6.37;;;;;;;-12.72;60.86;101868.09;5077076;28;20032;-71
2023/12/09 06:16:03;;;;;;;15.03;6.30;;;;;;;-12.96;60.89;101842.63;5078533;28;20729;-70
2023/12/09 06:18:29;;;;;;;17.87;7.20;;;;;;;-12.93;61.33;101836.38;5063824;28;20036;-70
2023/12/09 06:20:58;;;;;;;12.97;6.40;;;;;;;-12.87;61.28;101858.75;5075743;28;20132;-70
2023/12/09 06:23:24;;;;;;;15.13;7.03;;;;;;;-13.29;60.81;101815.38;5043427;28;20040;-74
2023/12/09 06:25:53;;;;;;;15.47;5.20;;;;;;;-13.10;60.86;101856.06;5039806;28;20052;-73
2023/12/09 06:28:19;;;;;;;17.50;6.73;;;;;;;-13.30;62.48;101814.50;5060565;28;20052;-73
2023/12/09 06:30:45;;;;;;;14.73;5.63;;;;;;;-13.20;61.41;101819.84;5060360;28;20036;-72
2023/12/09 06:33:11;;;;;;;11.77;5.27;;;;;;;-12.87;61.30;101851.22;5060236;28;20055;-73
2023/12/09 06:35:37;;;;;;;13.57;5.80;;;;;;;-13.09;60.63;101852.84;5075614;28;20037;-73
2023/12/09 06:38:03;;;;;;;14.87;6.00;;;;;;;-13.09;62.09;101813.59;5059665;28;20077;-74
2023/12/09 06:40:29;;;;;;;16.90;6.20;;;;;;;-12.92;61.99;101788.00;5060761;28;20039;-73
2023/12/09 06:42:55;;;;;;;17.00;4.97;;;;;;;-13.14;60.61;101774.59;5075974;28;20040;-74
2023/12/09 06:45:21;;;;;;;12.40;5.93;;;;;;;-13.03;60.33;101831.00;5088331;28;20059;-74
2023/12/09 06:47:47;;;;;;;16.47;6.40;;;;;;;-13.04;61.88;101786.59;5047608;28;20120;-72
2023/12/09 06:50:14;;;;;;;16.17;6.77;;;;;;;-12.96;62.45;101732.31;5078079;28;20493;-73
2023/12/09 06:52:39;;;;;;;16.73;6.93;;;;;;;-12.44;61.38;101816.09;5075843;28;20043;-72
2023/12/09 06:55:06;;;;;;;18.23;6.90;;;;;;;-12.14;62.61;101786.81;5058824;28;20036;-72
2023/12/09 06:57:32;;;;;;;24.80;6.83;;;;;;;-12.08;60.19;101805.06;5079055;28;20529;-72
2023/12/09 06:59:58;;;;;;;22.03;7.07;;;;;;;-12.34;60.53;101782.91;5077816;28;20536;-73
2023/12/09 07:02:24;;;;;;;15.50;6.53;;;;;;;-12.16;61.60;101806.69;5048267;28;20454;-72
2023/12/09 07:04:50;;;;;;;12.37;5.97;;;;;;;-12.42;59.94;101813.75;5043554;28;20048;-72
2023/12/09 07:07:16;;;;;;;10.83;4.20;;;;;;;-12.29;60.40;101816.94;5075782;28;20549;-72
2023/12/09 07:09:42;;;;;;;8.80;4.53;;;;;;;-12.66;60.23;101791.75;5058993;28;20040;-73
2023/12/09 07:12:08;;;;;;;18.40;7.47;;;;;;;-12.56;61.91;101755.34;5062339;28;20036;-74
2023/12/09 07:14:34;;;;;;;16.37;6.33;;;;;;;-12.04;62.73;101762.00;5078262;28;20245;-74
2023/12/09 07:17:00;;;;;;;7.30;3.97;;;;;;;-11.90;60.36;101767.63;5076150;28;20028;-75
2023/12/09 07:19:26;;;;;;;19.77;7.30;;;;;;;-12.24;60.11;101771.41;5059872;28;20043;-75
2023/12/09 07:21:52;;;;;;;15.77;6.43;;;;;;;-12.95;59.78;101699.88;5067402;28;20067;-75
2023/12/09 07:24:18;;;;;;;18.03;6.43;;;;;;;-12.46;60.65;101741.34;5064533;28;20479;-74
2023/12/09 07:26:44;;;;;;;15.60;6.77;;;;;;;-11.91;61.71;101804.44;5075656;28;20041;-74
2023/12/09 07:29:25;;;;;;;26.50;6.90;;;;;;;-11.96;60.91;101770.34;5062882;28;22084;-75
2023/12/09 07:31:52;;;;;;;11.73;5.73;;;;;;;-12.06;60.61;101735.81;5075484;28;20051;-75
2023/12/09 07:34:39;;;;;;;16.63;6.43;;;;;;;-11.56;60.91;101797.44;5078975;28;20489;-75
2023/12/09 07:37:11;;;;;;;12.47;5.60;;;;;;;-12.06;58.08;101767.59;5052366;28;20059;-75
2023/12/09 07:39:37;;;;;;;13.17;5.67;;;;;;;-12.08;59.65;101805.06;5076080;28;20507;-76
2023/12/09 07:42:04;;;;;;;9.40;4.43;;;;;;;-12.73;59.23;101758.44;5077055;28;20517;-76
2023/12/09 07:44:36;;;;;;;18.23;6.87;;;;;;;-12.64;60.77;101766.13;5077027;28;20032;-74
2023/12/09 07:47:06;;;;;;;17.20;6.10;;;;;;;-12.28;60.71;101780.22;5079556;28;20720;-77
2023/12/09 07:49:35;;;;;;;16.97;6.63;;;;;;;-11.99;62.15;101772.56;5062544;28;20512;-79
2023/12/09 07:52:10;;;;;;;12.37;5.50;;;;;;;-11.88;59.88;101814.81;5068346;28;20043;-82
2023/12/09 07:54:47;;;;;;;13.77;5.80;;;;;;;-12.46;59.03;101767.31;5077757;28;20044;-80
2023/12/09 07:57:14;;;;;;;11.10;4.83;;;;;;;-12.59;58.98;101819.34;5081882;28;20032;-80
2023/12/09 07:59:43;;;;;;;14.03;6.13;;;;;;;-13.41;59.74;101763.13;5069044;28;20059;-82
2023/12/09 08:02:12;;;;;;;15.07;5.37;;;;;;;-12.96;60.58;101815.94;5085470;28;20111;-80
2023/12/09 08:04:47;;;;;;;10.43;5.33;;;;;;;-13.46;60.09;101719.09;5083261;28;20048;-81
2023/12/09 08:07:14;;;;;;;12.97;5.13;;;;;;;-13.36;59.60;101754.53;5065650;28;20563;-80
2023/12/09 08:09:43;;;;;;;15.63;5.23;;;;;;;-13.20;60.09;101767.22;5066365;28;20055;-77
2023/12/09 08:12:22;;;;;;;20.43;7.87;;;;;;;-13.15;61.76;101710.13;5076225;28;20402;-75
2023/12/09 08:14:48;;;;;;;14.90;5.80;;;;;;;-12.62;60.84;101744.63;5086137;28;20043;-80
2023/12/09 08:17:14;;;;;;;16.47;7.07;;;;;;;-12.40;60.31;101777.19;5083785;28;20123;-78
2023/12/09 08:19:40;;;;;;;10.97;4.63;;;;;;;-12.50;59.75;101736.69;5079026;28;20045;-81
2023/12/09 08:22:07;;;;;;;19.77;6.87;;;;;;;-12.32;61.25;101763.88;5083163;28;20044;-78
2023/12/09 08:24:32;;;;;;;21.33;7.70;;;;;;;-12.05;60.57;101774.41;5086346;28;20059;-77
2023/12/09 08:26:58;;;;;;;16.83;8.03;;;;;;;-12.24;59.68;101748.81;5085036;28;20059;-79
2023/12/09 08:29:25;;;;;;;13.30;5.10;;;;;;;-12.31;59.08;101754.75;5083686;28;20049;-79
2023/12/09 08:31:51;;;;;;;15.57;7.67;;;;;;;-12.29;58.81;101790.97;5066729;28;20133;-80
2023/12/09 08:34:17;;;;;;;15.97;6.90;;;;;;;-12.26;60.39;101758.69;5084552;28;20039;-78
2023/12/09 08:36:44;;;;;;;18.13;6.03;;;;;;;-12.01;59.62;101772.41;5085026;28;20032;-79
2023/12/09 08:39:10;;;;;;;19.50;8.17;;;;;;;-12.15;59.71;101748.25;5092545;28;20075;-78
2023/12/09 08:41:37;;;;;;;8.23;4.30;;;;;;;-12.42;58.73;101736.84;5073802;28;20040;-78
2023/12/09 08:44:03;;;;;;;10.27;4.47;;;;;;;-12.47;58.43;101763.06;5077606;28;20580;-78
2023/12/09 08:46:30;;;;;;;12.53;5.57;;;;;;;-12.67;58.67;101777.41;5082675;28;20102;-79
2023/12/09 08:48:56;;;;;;;18.80;7.30;;;;;;;-12.76;59.89;101750.56;5080535;28;20173;-76
2023/12/09 08:51:22;;;;;;;15.17;7.10;;;;;;;-12.55;59.95;101731.16;5078390;28;20036;-78
2023/12/09 08:53:50;;;;;;;18.87;5.70;;;;;;;-12.28;59.58;101757.63;5089643;28;20051;-79
2023/12/09 08:56:16;;;;;;;12.17;5.27;;;;;;;-12.11;60.09;101737.81;5083548;28;20115;-78
2023/12/09 08:58:42;;;;;;;10.30;5.10;;;;;;;-11.81;59.49;101746.06;5070918;28;20063;-79
2023/12/09 09:01:08;;;;;;;10.43;3.60;;;;;;;-11.98;58.72;101719.97;5083629;28;20067;-80
2023/12/09 09:03:34;;;;;;;10.60;4.87;;;;;;;-11.98;58.30;101744.19;5068891;28;20036;-81
2023/12/09 09:06:00;;;;;;;16.90;5.93;;;;;;;-11.83;59.29;101750.03;5080795;28;20075;-77
2023/12/09 09:08:26;;;;;;;13.53;5.60;;;;;;;-11.96;58.21;101713.50;5064891;28;20414;-79
2023/12/09 09:10:52;;;;;;;12.83;4.77;;;;;;;-12.33;57.49;101709.38;5065473;28;20068;-79
2023/12/09 09:13:19;;;;;;;10.77;4.60;;;;;;;-12.36;57.92;101741.69;5085273;28;20040;-79
2023/12/09 09:15:46;;;;;;;14.53;5.87;;;;;;;-12.70;58.50;101725.28;5074065;28;20123;-80
2023/12/09 09:18:11;;;;;;;16.63;6.20;;;;;;;-12.31;59.32;101745.59;5086058;28;20040;-81
2023/12/09 09:20:37;;;;;;;10.23;4.30;;;;;;;-12.58;58.38;101729.22;5087848;28;20040;-79
2023/12/09 09:23:03;;;;;;;10.63;5.67;;;;;;;-12.49;58.91;101726.84;5069551;28;20041;-81
2023/12/09 09:25:29;;;;;;;15.03;4.80;;;;;;;-12.46;58.92;101692.06;5086515;28;20036;-77
2023/12/09 09:27:55;;;;;;;15.57;5.17;;;;;;;-12.44;57.65;101714.81;5078247;28;20045;-80
2023/12/09 09:30:23;;;;;;;10.60;4.73;;;;;;;-12.74;57.65;101688.03;5084131;28;20040;-80
2023/12/09 09:32:49;;;;;;;12.30;5.73;;;;;;;-12.77;58.09;101708.66;5082862;28;20507;-78
2023/12/09 09:35:15;;;;;;;19.70;8.43;;;;;;;-12.18;59.92;101706.84;5081781;28;20028;-79
2023/12/09 09:37:41;;;;;;;14.53;5.80;;;;;;;-12.32;57.83;101663.50;5061187;28;20059;-79
2023/12/09 09:40:08;;;;;;;9.77;4.40;;;;;;;-12.25;58.07;101712.78;5078053;28;20064;-80
2023/12/09 09:42:41;;;;;;;12.13;5.90;;;;;;;-12.24;59.31;101704.50;5076590;28;20044;-81
2023/12/09 09:45:24;;;;;;;12.60;5.20;;;;;;;-12.33;57.49;101731.97;5074241;28;20098;-81
2023/12/09 09:47:52;;;;;;;18.33;6.40;;;;;;;-12.53;57.72;101719.69;5080310;28;20036;-78
2023/12/09 09:50:26;;;;;;;23.17;6.97;;;;;;;-12.43;59.33;101689.88;5075777;28;20123;-77
2023/12/09 09:52:53;;;;;;;13.13;5.30;;;;;;;-12.33;57.81;101695.97;5079882;28;20105;-77
2023/12/09 09:55:21;;;;;;;13.60;5.23;;;;;;;-12.39;57.58;101718.75;5076645;28;20040;-77
2023/12/09 09:57:48;;;;;;;11.00;4.90;;;;;;;-12.56;57.83;101730.25;5076418;28;20055;-78
2023/12/09 10:00:15;;;;;;;11.50;5.07;;;;;;;-13.06;57.70;101691.13;5080907;28;20040;-78
2023/12/09 10:02:43;;;;;;;16.03;7.13;;;;;;;-12.88;58.67;101693.97;5086841;28;20043;-78
2023/12/09 10:05:10;;;;;;;19.10;6.97;;;;;;;-12.35;61.18;101690.75;5074580;28;20528;-77
2023/12/09 10:07:37;;;;;;;17.10;6.47;;;;;;;-12.00;60.23;101708.91;5077958;28;20064;-79
2023/12/09 10:10:05;;;;;;;16.27;6.37;;;;;;;-12.19;59.17;101721.00;5079044;28;20121;-79
2023/12/09 10:12:31;;;;;;;9.23;4.57;;;;;;;-12.33;58.11;101716.03;5078558;28;20104;-75
2023/12/09 10:14:56;;;;;;;15.63;5.63;;;;;;;-12.29;59.08;101708.16;5079268;28;20174;-74
2023/12/09 10:17:23;;;;;;;15.60;6.00;;;;;;;-12.26;59.86;101694.31;5076355;28;20069;-77
2023/12/09 10:19:49;;;;;;;11.77;4.63;;;;;;;-12.20;59.29;101688.19;5071471;28;20048;-77
2023/12/09 10:22:15;;;;;;;13.60;5.27;;;;;;;-12.19;59.48;101654.84;5075162;28;20044;-76
2023/12/09 10:24:51;;;;;;;16.13;6.87;;;;;;;-11.92;58.72;101683.72;5077835;28;20461;-81
2023/12/09 10:27:26;;;;;;;12.97;5.37;;;;;;;-11.93;57.84;101670.25;5085092;28;20048;-75
2023/12/09 10:29:57;;;;;;;17.67;4.60;;;;;;;-12.27;57.84;101690.00;5062014;28;20441;-79
2023/12/09 10:32:25;;;;;;;15.87;5.83;;;;;;;-12.37;58.60;101668.72;5049226;28;20127;-79
2023/12/09 10:34:51;;;;;;;14.10;6.03;;;;;;;-12.31;58.80;101661.91;5063345;28;20036;-76
2023/12/09 10:37:18;;;;;;;16.93;6.97;;;;;;;-12.31;59.13;101644.31;5077332;28;20060;-81
2023/12/09 10:39:49;;;;;;;19.30;7.13;;;;;;;-12.09;58.74;101684.38;5069598;28;20040;-81
2023/12/09 10:42:15;;;;;;;16.30;6.22;;;;;;;-12.12;59.36;101658.22;5087718;28;20044;-78
2023/12/09 10:44:42;;;;;;;12.30;5.40;;;;;;;-11.76;59.29;101656.16;5079160;28;20135;-82
2023/12/09 10:47:08;;;;;;;19.83;7.27;;;;;;;-11.86;59.89;101614.97;5081044;28;20040;-79
2023/12/09 10:49:34;;;;;;;13.87;6.70;;;;;;;-11.65;57.38;101664.13;5070677;28;20016;-84
2023/12/09 10:52:01;;;;;;;15.03;5.93;;;;;;;-12.23;58.14;101620.97;5049414;28;20353;-81
2023/12/09 10:54:27;;;;;;;27.10;8.17;;;;;;;-11.88;59.40;101641.53;5079912;28;20040;-82
2023/12/09 10:56:53;;;;;;;14.23;6.17;;;;;;;-12.21;57.29;101637.09;5061993;28;20472;-83
2023/12/09 10:59:19;;;;;;;17.07;7.53;;;;;;;-12.05;58.55;101653.88;5081427;28;20158;-82
2023/12/09 11:01:46;;;;;;;14.40;6.57;;;;;;;-12.05;58.03;101661.41;5080268;28;20055;-82
2023/12/09 11:04:13;;;;;;;19.00;8.00;;;;;;;-12.11;59.14;101633.97;5078600;28;20055;-79
2023/12/09 11:06:45;;;;;;;21.63;7.20;;;;;;;-12.26;58.42;101616.50;5064191;28;20040;-79
2023/12/09 11:09:14;;;;;;;12.82;7.05;;;;;;;-12.24;57.84;101630.84;5081365;28;20044;-80